createdAt,value
2018-12-27T00:00:09.439Z,96.95
2018-12-27T00:01:09.434Z,96.54
2018-12-27T00:02:09.419Z,96.95
2018-12-27T00:03:09.431Z,97.06
2018-12-27T00:04:09.400Z,96.95
2018-12-27T00:05:09.383Z,97.20
2018-12-27T00:06:09.370Z,97.00
2018-12-27T00:07:09.362Z,96.85
2018-12-27T00:08:09.389Z,97.00
2018-12-27T00:09:09.351Z,97.06
2018-12-27T00:10:09.329Z,97.62
2018-12-27T00:11:09.368Z,97.37
2018-12-27T00:12:09.305Z,96.48
2018-12-27T00:13:09.294Z,96.58
2018-12-27T00:14:09.286Z,96.44
2018-12-27T00:15:09.271Z,96.95
2018-12-27T00:16:09.303Z,97.06
2018-12-27T00:17:09.248Z,97.41
2018-12-27T00:18:09.240Z,97.16
2018-12-27T00:19:09.228Z,97.16
2018-12-27T00:20:09.218Z,97.52
2018-12-27T00:21:09.230Z,97.37
2018-12-27T00:22:09.197Z,97.41
2018-12-27T00:23:09.182Z,97.41
2018-12-27T00:24:09.171Z,97.41
2018-12-27T00:25:09.188Z,97.16
2018-12-27T00:26:09.165Z,97.37
2018-12-27T00:27:09.137Z,97.62
2018-12-27T00:28:09.151Z,97.31
2018-12-27T00:29:09.118Z,97.52
2018-12-27T00:30:09.104Z,97.31
2018-12-27T00:31:09.098Z,97.31
2018-12-27T00:32:09.103Z,97.31
2018-12-27T00:33:09.076Z,97.47
2018-12-27T00:34:09.060Z,97.52
2018-12-27T00:35:09.055Z,97.52
2018-12-27T00:36:09.043Z,97.31
2018-12-27T00:37:09.053Z,97.20
2018-12-27T00:38:09.032Z,97.00
2018-12-27T00:39:09.002Z,97.00
2018-12-27T00:40:08.995Z,96.89
2018-12-27T00:41:08.981Z,97.00
2018-12-27T00:42:09.004Z,97.10
2018-12-27T00:43:08.970Z,97.10
2018-12-27T00:44:08.947Z,97.00
2018-12-27T00:45:08.939Z,97.00
2018-12-27T00:46:08.940Z,97.10
2018-12-27T00:47:08.929Z,97.00
2018-12-27T00:48:08.906Z,97.10
2018-12-27T00:49:08.902Z,97.00
2018-12-27T00:50:08.878Z,97.10
2018-12-27T00:51:08.892Z,96.89
2018-12-27T00:52:08.857Z,97.10
2018-12-27T00:53:08.850Z,97.10
2018-12-27T00:54:08.846Z,97.10
2018-12-27T00:55:08.856Z,97.52
2018-12-27T00:56:08.814Z,97.31
2018-12-27T00:57:08.809Z,96.48
2018-12-27T00:58:08.797Z,96.48
2018-12-27T00:59:08.806Z,97.00
2018-12-27T01:00:08.908Z,96.89
2018-12-27T01:01:08.793Z,97.20
2018-12-27T01:02:08.744Z,96.89
2018-12-27T01:03:11.382Z,96.69
2018-12-27T01:04:08.723Z,96.89
2018-12-27T01:05:08.715Z,96.48
2018-12-27T01:06:08.707Z,96.79
2018-12-27T01:07:08.727Z,97.10
2018-12-27T01:08:08.678Z,97.31
2018-12-27T01:09:08.669Z,96.89
2018-12-27T01:10:08.661Z,96.79
2018-12-27T01:11:08.647Z,96.89
2018-12-27T01:12:08.657Z,96.48
2018-12-27T01:13:08.623Z,97.10
2018-12-27T01:14:08.613Z,97.10
2018-12-27T01:15:08.616Z,97.10
2018-12-27T01:16:08.591Z,97.00
2018-12-27T01:17:08.604Z,97.00
2018-12-27T01:18:08.582Z,97.31
2018-12-27T01:19:08.560Z,97.20
2018-12-27T01:20:08.552Z,97.10
2018-12-27T01:21:08.531Z,96.83
2018-12-27T01:22:08.542Z,97.14
2018-12-27T01:23:08.545Z,97.00
2018-12-27T01:24:08.517Z,97.25
2018-12-27T01:25:08.505Z,97.10
2018-12-27T01:26:08.476Z,97.35
2018-12-27T01:27:08.471Z,97.52
2018-12-27T01:28:08.479Z,97.41
2018-12-27T01:29:08.444Z,97.41
2018-12-27T01:30:08.429Z,97.52
2018-12-27T01:31:08.443Z,97.20
2018-12-27T01:32:08.412Z,97.67
2018-12-27T01:33:08.604Z,97.20
2018-12-27T01:34:08.388Z,97.00
2018-12-27T01:35:08.382Z,97.14
2018-12-27T01:36:08.369Z,96.69
2018-12-27T01:37:08.353Z,97.04
2018-12-27T01:38:08.372Z,96.69
2018-12-27T01:39:08.330Z,96.00
2018-12-27T01:40:08.321Z,96.17
2018-12-27T01:41:08.321Z,96.17
2018-12-27T01:42:08.298Z,95.79
2018-12-27T01:43:08.317Z,95.79
2018-12-27T01:44:08.273Z,96.00
2018-12-27T01:45:08.265Z,95.86
2018-12-27T01:46:08.262Z,96.00
2018-12-27T01:47:08.258Z,96.31
2018-12-27T01:48:08.260Z,95.90
2018-12-27T01:49:08.224Z,95.59
2018-12-27T01:50:08.226Z,95.59
2018-12-27T01:51:08.227Z,96.11
2018-12-27T01:52:08.204Z,96.31
2018-12-27T01:53:08.177Z,96.11
2018-12-27T01:54:08.162Z,96.21
2018-12-27T01:55:08.186Z,95.90
2018-12-27T01:56:08.149Z,95.17
2018-12-27T01:57:08.131Z,94.96
2018-12-27T01:58:08.131Z,95.69
2018-12-27T01:59:08.107Z,95.69
2018-12-27T02:00:08.122Z,95.79
2018-12-27T02:01:08.086Z,95.79
2018-12-27T02:02:08.074Z,95.17
2018-12-27T02:03:08.064Z,94.96
2018-12-27T02:04:08.067Z,95.07
2018-12-27T02:05:08.077Z,94.96
2018-12-27T02:06:08.032Z,94.90
2018-12-27T02:07:08.018Z,94.86
2018-12-27T02:08:08.008Z,95.17
2018-12-27T02:09:08.096Z,95.01
2018-12-27T02:10:08.006Z,95.21
2018-12-27T02:11:07.973Z,94.80
2018-12-27T02:12:07.967Z,94.86
2018-12-27T02:13:07.952Z,95.11
2018-12-27T02:14:07.951Z,94.76
2018-12-27T02:15:07.951Z,94.86
2018-12-27T02:16:07.917Z,94.76
2018-12-27T02:17:07.958Z,94.65
2018-12-27T02:18:07.896Z,94.55
2018-12-27T02:19:07.891Z,94.13
2018-12-27T02:20:07.878Z,94.24
2018-12-27T02:21:07.886Z,94.24
2018-12-27T02:22:07.898Z,94.76
2018-12-27T02:23:07.840Z,94.80
2018-12-27T02:24:07.855Z,94.90
2018-12-27T02:25:07.819Z,94.80
2018-12-27T02:26:07.805Z,95.11
2018-12-27T02:27:07.827Z,94.90
2018-12-27T02:28:07.787Z,95.53
2018-12-27T02:29:07.770Z,94.80
2018-12-27T02:30:07.760Z,95.11
2018-12-27T02:31:07.756Z,95.01
2018-12-27T02:32:07.773Z,94.90
2018-12-27T02:33:07.733Z,94.90
2018-12-27T02:34:07.717Z,94.90
2018-12-27T02:35:07.703Z,94.90
2018-12-27T02:36:07.700Z,95.01
2018-12-27T02:37:07.714Z,95.53
2018-12-27T02:38:07.675Z,95.73
2018-12-27T02:39:07.661Z,95.47
2018-12-27T02:40:07.645Z,96.30
2018-12-27T02:41:07.644Z,96.09
2018-12-27T02:42:07.687Z,95.89
2018-12-27T02:43:07.668Z,95.57
2018-12-27T02:44:07.606Z,95.94
2018-12-27T02:45:07.603Z,95.57
2018-12-27T02:46:07.591Z,95.89
2018-12-27T02:47:07.570Z,96.09
2018-12-27T02:48:07.579Z,95.84
2018-12-27T02:49:07.549Z,96.09
2018-12-27T02:50:07.582Z,96.09
2018-12-27T02:51:07.535Z,95.89
2018-12-27T02:52:07.517Z,95.84
2018-12-27T02:53:07.504Z,95.67
2018-12-27T02:54:07.493Z,95.73
2018-12-27T02:55:07.516Z,95.63
2018-12-27T02:56:07.482Z,95.84
2018-12-27T02:57:07.467Z,95.63
2018-12-27T02:58:07.449Z,95.94
2018-12-27T02:59:07.469Z,96.04
2018-12-27T03:00:07.433Z,96.04
2018-12-27T03:01:07.416Z,95.94
2018-12-27T03:02:07.402Z,95.94
2018-12-27T03:03:07.393Z,95.94
2018-12-27T03:04:07.416Z,95.73
2018-12-27T03:05:07.368Z,95.84
2018-12-27T03:06:07.360Z,95.84
2018-12-27T03:07:07.357Z,95.84
2018-12-27T03:08:07.340Z,95.94
2018-12-27T03:09:07.377Z,95.94
2018-12-27T03:10:07.344Z,96.25
2018-12-27T03:11:07.303Z,96.25
2018-12-27T03:12:07.289Z,96.25
2018-12-27T03:13:07.289Z,96.25
2018-12-27T03:14:07.272Z,96.25
2018-12-27T03:15:07.299Z,96.25
2018-12-27T03:16:07.247Z,95.94
2018-12-27T03:17:07.237Z,96.15
2018-12-27T03:18:07.228Z,95.84
2018-12-27T03:19:07.238Z,95.94
2018-12-27T03:20:07.242Z,95.84
2018-12-27T03:21:07.191Z,96.04
2018-12-27T03:22:07.184Z,96.04
2018-12-27T03:23:07.170Z,95.67
2018-12-27T03:24:07.165Z,95.84
2018-12-27T03:25:07.191Z,95.99
2018-12-27T03:26:07.133Z,95.67
2018-12-27T03:27:07.123Z,95.78
2018-12-27T03:28:07.117Z,95.99
2018-12-27T03:29:07.099Z,95.99
2018-12-27T03:30:07.113Z,96.20
2018-12-27T03:31:07.082Z,95.99
2018-12-27T03:32:07.080Z,95.78
2018-12-27T03:33:07.085Z,96.34
2018-12-27T03:34:07.045Z,96.24
2018-12-27T03:35:07.033Z,96.55
2018-12-27T03:36:07.031Z,96.34
2018-12-27T03:37:07.051Z,96.92
2018-12-27T03:38:07.023Z,97.17
2018-12-27T03:39:06.990Z,96.76
2018-12-27T03:40:06.980Z,96.82
2018-12-27T03:41:06.976Z,96.97
2018-12-27T03:42:06.978Z,96.97
2018-12-27T03:43:06.943Z,97.07
2018-12-27T03:44:06.937Z,97.07
2018-12-27T03:45:06.930Z,96.97
2018-12-27T03:46:06.932Z,97.17
2018-12-27T03:47:06.912Z,96.97
2018-12-27T03:48:06.888Z,96.86
2018-12-27T03:49:06.878Z,96.91
2018-12-27T03:50:06.866Z,96.91
2018-12-27T03:51:06.868Z,97.22
2018-12-27T03:52:06.881Z,97.12
2018-12-27T03:53:06.855Z,97.43
2018-12-27T03:54:06.820Z,97.47
2018-12-27T03:55:06.809Z,97.33
2018-12-27T03:56:06.797Z,97.85
2018-12-27T03:57:06.828Z,97.64
2018-12-27T03:58:06.780Z,97.74
2018-12-27T03:59:06.779Z,97.53
2018-12-27T04:00:06.757Z,97.53
2018-12-27T04:01:06.746Z,97.64
2018-12-27T04:02:06.749Z,97.64
2018-12-27T04:03:06.722Z,97.68
2018-12-27T04:04:06.713Z,97.58
2018-12-27T04:05:06.715Z,97.58
2018-12-27T04:06:06.687Z,97.47
2018-12-27T04:07:06.703Z,97.68
2018-12-27T04:08:06.664Z,97.58
2018-12-27T04:09:06.679Z,97.68
2018-12-27T04:10:06.665Z,97.58
2018-12-27T04:11:06.647Z,98.31
2018-12-27T04:12:06.665Z,98.41
2018-12-27T04:13:06.613Z,98.35
2018-12-27T04:14:06.602Z,98.25
2018-12-27T04:15:06.592Z,98.35
2018-12-27T04:16:06.586Z,98.56
2018-12-27T04:17:06.591Z,98.35
2018-12-27T04:18:06.593Z,98.35
2018-12-27T04:19:06.567Z,98.35
2018-12-27T04:20:06.532Z,98.14
2018-12-27T04:21:06.546Z,97.94
2018-12-27T04:22:06.520Z,98.08
2018-12-27T04:23:06.528Z,98.08
2018-12-27T04:24:06.490Z,98.39
2018-12-27T04:25:06.477Z,98.71
2018-12-27T04:26:06.500Z,99.02
2018-12-27T04:27:06.467Z,99.02
2018-12-27T04:28:06.456Z,98.86
2018-12-27T04:29:06.463Z,98.55
2018-12-27T04:30:06.513Z,98.55
2018-12-27T04:31:06.452Z,98.65
2018-12-27T04:32:06.420Z,98.75
2018-12-27T04:33:06.401Z,98.65
2018-12-27T04:34:09.634Z,98.96
2018-12-27T04:35:06.445Z,98.65
2018-12-27T04:36:06.375Z,98.75
2018-12-27T04:37:06.358Z,99.17
2018-12-27T04:38:06.350Z,99.27
2018-12-27T04:39:06.327Z,99.22
2018-12-27T04:40:06.337Z,99.43
2018-12-27T04:41:06.308Z,99.43
2018-12-27T04:42:06.291Z,99.53
2018-12-27T04:43:06.281Z,99.01
2018-12-27T04:44:06.283Z,99.11
2018-12-27T04:45:06.279Z,99.32
2018-12-27T04:46:06.247Z,99.53
2018-12-27T04:47:06.243Z,99.53
2018-12-27T04:48:06.231Z,99.74
2018-12-27T04:49:06.213Z,99.74
2018-12-27T04:50:06.225Z,99.95
2018-12-27T04:51:06.220Z,99.89
2018-12-27T04:52:06.218Z,99.57
2018-12-27T04:53:06.172Z,99.63
2018-12-27T04:54:06.192Z,99.74
2018-12-27T04:55:06.143Z,99.53
2018-12-27T04:56:06.134Z,99.84
2018-12-27T04:57:06.152Z,99.99
2018-12-27T04:58:06.116Z,99.99
2018-12-27T04:59:06.101Z,99.99
2018-12-27T05:00:06.094Z,99.99
2018-12-27T05:01:06.075Z,99.99
2018-12-27T05:02:06.088Z,99.99
2018-12-27T05:03:06.097Z,99.99
2018-12-27T05:04:06.049Z,99.99
2018-12-27T05:05:06.036Z,99.99
2018-12-27T05:06:06.059Z,99.89
2018-12-27T05:07:06.015Z,99.99
2018-12-27T05:08:06.008Z,99.99
2018-12-27T05:09:06.018Z,99.99
2018-12-27T05:10:05.978Z,99.68
2018-12-27T05:11:05.969Z,99.83
2018-12-27T05:12:05.959Z,99.89
2018-12-27T05:13:05.943Z,99.89
2018-12-27T05:14:05.978Z,99.93
2018-12-27T05:15:05.921Z,99.99
2018-12-27T05:16:05.912Z,99.93
2018-12-27T05:17:05.912Z,99.93
2018-12-27T05:18:05.890Z,99.93
2018-12-27T05:19:05.899Z,99.99
2018-12-27T05:20:05.878Z,99.99
2018-12-27T05:21:05.860Z,99.99
2018-12-27T05:22:05.882Z,99.99
2018-12-27T05:23:05.832Z,99.99
2018-12-27T05:24:05.826Z,99.99
2018-12-27T05:25:05.821Z,99.99
2018-12-27T05:26:05.821Z,99.99
2018-12-27T05:27:05.817Z,99.99
2018-12-27T05:28:05.785Z,99.83
2018-12-27T05:29:05.790Z,99.83
2018-12-27T05:30:05.769Z,99.83
2018-12-27T05:31:05.764Z,99.99
2018-12-27T05:32:05.758Z,99.93
2018-12-27T05:33:05.723Z,99.83
2018-12-27T05:34:05.737Z,99.99
2018-12-27T05:35:05.701Z,99.93
2018-12-27T05:36:05.691Z,99.99
2018-12-27T05:37:05.687Z,99.99
2018-12-27T05:38:05.691Z,99.99
2018-12-27T05:39:05.665Z,99.99
2018-12-27T05:40:05.656Z,99.99
2018-12-27T05:41:05.635Z,99.93
2018-12-27T05:42:05.637Z,99.83
2018-12-27T05:43:05.650Z,99.88
2018-12-27T05:44:05.650Z,99.99
2018-12-27T05:45:05.605Z,99.99
2018-12-27T05:46:05.577Z,99.99
2018-12-27T05:47:05.592Z,99.99
2018-12-27T05:48:05.564Z,99.99
2018-12-27T05:49:05.544Z,99.99
2018-12-27T05:50:05.535Z,99.99
2018-12-27T05:51:05.527Z,99.99
2018-12-27T05:52:05.532Z,99.83
2018-12-27T05:53:05.523Z,99.93
2018-12-27T05:54:05.512Z,99.93
2018-12-27T05:55:05.496Z,99.62
2018-12-27T05:56:05.471Z,99.20
2018-12-27T05:57:05.492Z,99.20
2018-12-27T05:58:05.444Z,98.79
2018-12-27T05:59:05.435Z,99.10
2018-12-27T06:00:05.428Z,98.47
2018-12-27T06:01:05.416Z,98.05
2018-12-27T06:02:05.423Z,97.80
2018-12-27T06:03:05.412Z,98.16
2018-12-27T06:04:05.381Z,97.43
2018-12-27T06:05:05.369Z,97.74
2018-12-27T06:06:05.372Z,97.53
2018-12-27T06:07:05.346Z,97.32
2018-12-27T06:08:05.341Z,97.27
2018-12-27T06:09:05.331Z,97.43
2018-12-27T06:10:05.339Z,97.27
2018-12-27T06:11:05.302Z,97.27
2018-12-27T06:12:05.315Z,97.52
2018-12-27T06:13:05.281Z,97.27
2018-12-27T06:14:05.270Z,97.47
2018-12-27T06:15:05.261Z,97.68
2018-12-27T06:16:05.247Z,97.62
2018-12-27T06:17:05.250Z,97.78
2018-12-27T06:18:05.224Z,97.47
2018-12-27T06:19:05.219Z,97.68
2018-12-27T06:20:05.210Z,97.68
2018-12-27T06:21:05.210Z,97.47
2018-12-27T06:22:05.188Z,97.94
2018-12-27T06:23:05.180Z,97.72
2018-12-27T06:24:05.159Z,97.31
2018-12-27T06:25:05.186Z,97.83
2018-12-27T06:26:05.137Z,97.72
2018-12-27T06:27:05.135Z,97.62
2018-12-27T06:28:05.120Z,97.83
2018-12-27T06:29:05.102Z,97.83
2018-12-27T06:30:05.116Z,97.94
2018-12-27T06:31:05.078Z,97.98
2018-12-27T06:32:05.095Z,97.94
2018-12-27T06:33:05.058Z,97.52
2018-12-27T06:34:05.063Z,97.52
2018-12-27T06:35:05.041Z,97.52
2018-12-27T06:36:05.051Z,97.52
2018-12-27T06:37:05.014Z,97.52
2018-12-27T06:38:05.031Z,97.56
2018-12-27T06:39:04.992Z,97.77
2018-12-27T06:40:04.980Z,97.25
2018-12-27T06:41:04.970Z,97.83
2018-12-27T06:42:04.959Z,98.19
2018-12-27T06:43:04.976Z,98.19
2018-12-27T06:44:04.937Z,98.08
2018-12-27T06:45:04.924Z,97.77
2018-12-27T06:46:04.912Z,98.19
2018-12-27T06:47:04.902Z,98.08
2018-12-27T06:48:04.914Z,98.08
2018-12-27T06:49:04.883Z,98.29
2018-12-27T06:50:04.895Z,97.98
2018-12-27T06:51:04.858Z,98.04
2018-12-27T06:52:04.851Z,98.19
2018-12-27T06:53:04.853Z,97.94
2018-12-27T06:54:04.890Z,97.94
2018-12-27T06:55:04.839Z,97.98
2018-12-27T06:56:04.804Z,98.19
2018-12-27T06:57:04.816Z,98.08
2018-12-27T06:58:04.779Z,97.98
2018-12-27T06:59:04.768Z,98.19
2018-12-27T07:00:05.463Z,98.24
2018-12-27T07:01:04.749Z,98.08
2018-12-27T07:02:04.751Z,98.13
2018-12-27T07:03:04.748Z,97.81
2018-12-27T07:04:04.713Z,98.13
2018-12-27T07:05:04.706Z,98.02
2018-12-27T07:06:04.691Z,98.24
2018-12-27T07:07:04.680Z,97.96
2018-12-27T07:08:04.693Z,97.86
2018-12-27T07:09:04.664Z,98.07
2018-12-27T07:10:04.647Z,98.24
2018-12-27T07:11:04.664Z,98.24
2018-12-27T07:12:04.625Z,98.38
2018-12-27T07:13:04.633Z,98.38
2018-12-27T07:14:04.606Z,98.38
2018-12-27T07:15:04.603Z,98.18
2018-12-27T07:16:04.608Z,98.28
2018-12-27T07:17:04.568Z,98.38
2018-12-27T07:18:04.594Z,98.38
2018-12-27T07:19:04.573Z,98.18
2018-12-27T07:20:04.555Z,99.05
2018-12-27T07:21:04.524Z,98.91
2018-12-27T07:22:04.514Z,98.80
2018-12-27T07:23:04.507Z,98.49
2018-12-27T07:24:04.491Z,98.80
2018-12-27T07:25:04.497Z,98.59
2018-12-27T07:26:04.500Z,98.80
2018-12-27T07:27:04.458Z,98.85
2018-12-27T07:28:04.448Z,99.43
2018-12-27T07:29:04.436Z,99.43
2018-12-27T07:30:04.425Z,98.91
2018-12-27T07:31:04.440Z,99.11
2018-12-27T07:32:04.402Z,99.22
2018-12-27T07:33:04.400Z,99.07
2018-12-27T07:34:04.416Z,99.07
2018-12-27T07:35:04.371Z,98.86
2018-12-27T07:36:04.385Z,99.38
2018-12-27T07:37:04.346Z,99.22
2018-12-27T07:38:04.336Z,99.01
2018-12-27T07:39:04.327Z,99.11
2018-12-27T07:40:04.340Z,99.07
2018-12-27T07:41:04.306Z,99.11
2018-12-27T07:42:04.293Z,99.11
2018-12-27T07:43:04.284Z,99.11
2018-12-27T07:44:04.281Z,99.07
2018-12-27T07:45:04.286Z,99.22
2018-12-27T07:46:10.721Z,99.22
2018-12-27T07:47:05.716Z,99.59
2018-12-27T07:48:04.244Z,99.64
2018-12-27T07:49:04.215Z,99.22
2018-12-27T07:50:04.235Z,99.22
2018-12-27T07:51:04.194Z,99.43
2018-12-27T07:52:04.206Z,99.11
2018-12-27T07:53:04.199Z,99.22
2018-12-27T07:54:04.161Z,98.91
2018-12-27T07:55:04.148Z,99.22
2018-12-27T07:56:04.136Z,99.22
2018-12-27T07:57:04.187Z,99.22
2018-12-27T07:58:04.115Z,99.22
2018-12-27T07:59:04.103Z,99.32
2018-12-27T08:00:04.096Z,99.32
2018-12-27T08:01:04.089Z,99.32
2018-12-27T08:02:04.096Z,99.22
2018-12-27T08:03:04.059Z,99.01
2018-12-27T08:04:04.047Z,99.11
2018-12-27T08:05:04.568Z,99.11
2018-12-27T08:06:04.028Z,98.97
2018-12-27T08:07:04.040Z,98.86
2018-12-27T08:08:04.028Z,99.07
2018-12-27T08:09:03.994Z,99.22
2018-12-27T08:10:03.982Z,99.43
2018-12-27T08:11:03.971Z,99.38
2018-12-27T08:12:03.960Z,99.32
2018-12-27T08:13:03.972Z,99.11
2018-12-27T08:14:03.938Z,99.43
2018-12-27T08:15:03.925Z,99.43
2018-12-27T08:16:03.920Z,98.80
2018-12-27T08:17:04.023Z,98.69
2018-12-27T08:18:03.893Z,98.69
2018-12-27T08:19:03.894Z,98.80
2018-12-27T08:20:03.870Z,98.91
2018-12-27T08:21:03.936Z,98.59
2018-12-27T08:22:03.872Z,98.69
2018-12-27T08:23:03.837Z,99.43
2018-12-27T08:24:03.838Z,98.69
2018-12-27T08:25:03.814Z,98.91
2018-12-27T08:26:03.804Z,98.69
2018-12-27T08:27:03.817Z,98.38
2018-12-27T08:28:03.785Z,98.38
2018-12-27T08:29:03.773Z,98.59
2018-12-27T08:30:03.761Z,98.38
2018-12-27T08:31:03.748Z,98.59
2018-12-27T08:32:03.764Z,98.55
2018-12-27T08:33:03.728Z,98.55
2018-12-27T08:34:03.714Z,98.86
2018-12-27T08:35:03.704Z,98.86
2018-12-27T08:36:03.694Z,98.75
2018-12-27T08:37:03.715Z,98.65
2018-12-27T08:38:03.669Z,98.75
2018-12-27T08:39:03.690Z,98.65
2018-12-27T08:40:03.648Z,99.44
2018-12-27T08:41:03.637Z,99.44
2018-12-27T08:42:03.627Z,99.44
2018-12-27T08:43:03.615Z,99.24
2018-12-27T08:44:03.626Z,99.13
2018-12-27T08:45:03.609Z,99.34
2018-12-27T08:46:03.591Z,99.13
2018-12-27T08:47:03.572Z,99.34
2018-12-27T08:48:03.564Z,99.34
2018-12-27T08:49:03.549Z,99.24
2018-12-27T08:50:03.563Z,98.50
2018-12-27T08:51:03.541Z,98.46
2018-12-27T08:52:03.516Z,98.67
2018-12-27T08:53:03.504Z,98.35
2018-12-27T08:54:03.497Z,98.46
2018-12-27T08:55:03.507Z,98.88
2018-12-27T08:56:03.471Z,98.46
2018-12-27T08:57:03.484Z,98.67
2018-12-27T08:58:03.448Z,98.88
2018-12-27T08:59:03.442Z,98.10
2018-12-27T09:00:03.426Z,98.41
2018-12-27T09:01:03.447Z,98.31
2018-12-27T09:02:03.404Z,97.99
2018-12-27T09:03:03.393Z,97.89
2018-12-27T09:04:03.382Z,97.78
2018-12-27T09:05:03.373Z,98.10
2018-12-27T09:06:03.387Z,97.89
2018-12-27T09:07:04.265Z,97.43
2018-12-27T09:08:03.338Z,97.32
2018-12-27T09:09:03.328Z,97.32
2018-12-27T09:10:03.316Z,96.91
2018-12-27T09:11:03.331Z,96.17
2018-12-27T09:12:03.296Z,95.92
2018-12-27T09:13:03.305Z,96.23
2018-12-27T09:14:03.272Z,95.29
2018-12-27T09:15:03.261Z,94.63
2018-12-27T09:16:03.251Z,93.59
2018-12-27T09:17:03.266Z,91.77
2018-12-27T09:18:03.227Z,91.04
2018-12-27T09:19:03.215Z,89.95
2018-12-27T09:20:03.205Z,89.85
2018-12-27T09:21:03.194Z,89.54
2018-12-27T09:22:03.206Z,90.01
2018-12-27T09:23:03.171Z,89.60
2018-12-27T09:24:03.163Z,88.56
2018-12-27T09:25:03.171Z,87.06
2018-12-27T09:26:03.139Z,86.33
2018-12-27T09:27:03.127Z,86.75
2018-12-27T09:28:03.123Z,86.75
2018-12-27T09:29:03.139Z,86.40
2018-12-27T09:30:03.094Z,86.40
2018-12-27T09:31:03.082Z,85.35
2018-12-27T09:32:03.087Z,84.21
2018-12-27T09:33:03.095Z,84.31
2018-12-27T09:34:03.053Z,83.69
2018-12-27T09:35:03.038Z,84.42
2018-12-27T09:36:03.027Z,82.92
2018-12-27T09:37:03.522Z,81.88
2018-12-27T09:38:03.020Z,81.88
2018-12-27T09:39:03.009Z,81.95
2018-12-27T09:40:03.002Z,81.46
2018-12-27T09:41:02.972Z,81.43
2018-12-27T09:42:02.959Z,81.43
2018-12-27T09:43:02.952Z,81.43
2018-12-27T09:44:02.940Z,81.84
2018-12-27T09:45:02.950Z,81.01
2018-12-27T09:46:02.916Z,80.49
2018-12-27T09:47:02.905Z,80.39
2018-12-27T09:48:02.892Z,80.08
2018-12-27T09:49:02.883Z,79.97
2018-12-27T09:50:02.894Z,79.94
2018-12-27T09:51:02.861Z,78.31
2018-12-27T09:52:02.877Z,79.83
2018-12-27T09:53:02.843Z,81.08
2018-12-27T09:54:02.831Z,79.52
2018-12-27T09:55:02.817Z,77.89
2018-12-27T09:56:02.830Z,78.38
2018-12-27T09:57:02.798Z,79.62
2018-12-27T09:58:02.788Z,79.83
2018-12-27T09:59:02.771Z,80.15
2018-12-27T10:00:02.787Z,79.87
2018-12-27T10:01:02.771Z,79.66
2018-12-27T10:02:02.740Z,80.04
2018-12-27T10:03:02.727Z,79.83
2018-12-27T10:04:02.716Z,81.29
2018-12-27T10:05:02.705Z,80.77
2018-12-27T10:06:02.717Z,79.41
2018-12-27T10:07:02.680Z,79.62
2018-12-27T10:08:02.672Z,80.35
2018-12-27T10:09:02.657Z,80.04
2018-12-27T10:10:02.689Z,80.25
2018-12-27T10:11:02.639Z,80.32
2018-12-27T10:12:02.626Z,79.58
2018-12-27T10:13:02.616Z,77.96
2018-12-27T10:14:02.610Z,78.34
2018-12-27T10:15:02.615Z,79.27
2018-12-27T10:16:02.602Z,77.51
2018-12-27T10:17:02.573Z,77.92
2018-12-27T10:18:02.559Z,77.99
2018-12-27T10:19:02.552Z,78.65
2018-12-27T10:20:02.541Z,78.44
2018-12-27T10:21:02.548Z,77.16
2018-12-27T10:22:02.518Z,77.16
2018-12-27T10:23:02.510Z,77.44
2018-12-27T10:24:02.500Z,76.71
2018-12-27T10:25:02.478Z,77.95
2018-12-27T10:26:02.494Z,75.67
2018-12-27T10:27:02.485Z,77.12
2018-12-27T10:28:02.486Z,77.40
2018-12-27T10:29:02.463Z,76.81
2018-12-27T10:30:02.435Z,75.23
2018-12-27T10:31:02.439Z,76.37
2018-12-27T10:32:02.428Z,75.23
2018-12-27T10:33:02.423Z,76.16
2018-12-27T10:34:02.379Z,77.09
2018-12-27T10:35:02.368Z,76.02
2018-12-27T10:36:02.358Z,74.77
2018-12-27T10:37:02.351Z,74.26
2018-12-27T10:38:02.358Z,75.05
2018-12-27T10:39:02.323Z,74.63
2018-12-27T10:40:02.315Z,73.80
2018-12-27T10:41:02.327Z,73.60
2018-12-27T10:42:02.291Z,74.81
2018-12-27T10:43:02.280Z,73.25
2018-12-27T10:44:02.268Z,72.84
2018-12-27T10:45:02.257Z,73.15
2018-12-27T10:46:02.290Z,73.43
2018-12-27T10:47:02.234Z,71.15
2018-12-27T10:48:02.234Z,71.67
2018-12-27T10:49:02.217Z,73.19
2018-12-27T10:50:02.199Z,72.94
2018-12-27T10:51:02.213Z,72.77
2018-12-27T10:52:02.179Z,70.39
2018-12-27T10:53:02.178Z,70.36
2018-12-27T10:54:02.155Z,72.56
2018-12-27T10:55:02.172Z,72.15
2018-12-27T10:56:02.136Z,72.22
2018-12-27T10:57:02.122Z,71.70
2018-12-27T10:58:02.134Z,70.67
2018-12-27T10:59:02.099Z,70.57
2018-12-27T11:00:02.092Z,72.12
2018-12-27T11:01:02.079Z,70.67
2018-12-27T11:02:02.080Z,71.08
2018-12-27T11:03:02.062Z,70.26
2018-12-27T11:04:02.053Z,69.43
2018-12-27T11:05:02.033Z,69.74
2018-12-27T11:06:02.021Z,69.32
2018-12-27T11:07:02.114Z,67.98
2018-12-27T11:08:01.998Z,70.47
2018-12-27T11:09:01.986Z,70.95
2018-12-27T11:10:01.983Z,70.32
2018-12-27T11:11:01.964Z,69.92
2018-12-27T11:12:01.979Z,69.81
2018-12-27T11:13:01.945Z,71.64
2018-12-27T11:14:01.931Z,69.19
2018-12-27T11:15:01.927Z,69.19
2018-12-27T11:16:01.931Z,70.12
2018-12-27T11:17:01.898Z,69.71
2018-12-27T11:18:01.887Z,69.26
2018-12-27T11:19:01.876Z,70.01
2018-12-27T11:20:01.883Z,67.91
2018-12-27T11:21:01.853Z,68.15
2018-12-27T11:22:01.866Z,69.09
2018-12-27T11:23:01.853Z,70.09
2018-12-27T11:24:01.818Z,69.98
2018-12-27T11:25:01.808Z,68.26
2018-12-27T11:26:01.797Z,67.12
2018-12-27T11:27:01.788Z,70.36
2018-12-27T11:28:01.791Z,69.74
2018-12-27T11:29:01.803Z,68.29
2018-12-27T11:30:01.754Z,68.70
2018-12-27T11:31:01.742Z,68.46
2018-12-27T11:32:01.732Z,69.81
2018-12-27T11:33:01.720Z,69.22
2018-12-27T11:34:01.733Z,70.01
2018-12-27T11:35:01.698Z,69.92
2018-12-27T11:36:01.685Z,69.50
2018-12-27T11:37:01.673Z,69.37
2018-12-27T11:38:01.663Z,67.71
2018-12-27T11:39:01.676Z,68.95
2018-12-27T11:40:01.652Z,68.85
2018-12-27T11:41:01.629Z,69.47
2018-12-27T11:42:01.635Z,68.23
2018-12-27T11:43:01.611Z,66.67
2018-12-27T11:44:01.597Z,68.19
2018-12-27T11:45:01.589Z,69.95
2018-12-27T11:46:01.572Z,66.75
2018-12-27T11:47:01.586Z,65.51
2018-12-27T11:48:01.549Z,67.24
2018-12-27T11:49:01.565Z,67.75
2018-12-27T11:50:01.530Z,68.16
2018-12-27T11:51:01.522Z,68.06
2018-12-27T11:52:01.523Z,68.48
2018-12-27T11:53:01.494Z,66.82
2018-12-27T11:54:01.506Z,67.34
2018-12-27T11:55:01.472Z,64.78
2018-12-27T11:56:01.477Z,64.27
2018-12-27T11:57:01.472Z,64.58
2018-12-27T11:58:01.441Z,65.20
2018-12-27T11:59:01.427Z,65.51
2018-12-27T12:00:01.416Z,64.17
2018-12-27T12:01:01.430Z,63.75
2018-12-27T12:02:01.409Z,63.44
2018-12-27T12:03:01.382Z,63.00
2018-12-27T12:04:01.405Z,64.03
2018-12-27T12:05:01.365Z,65.03
2018-12-27T12:06:03.312Z,65.55
2018-12-27T12:07:01.376Z,66.55
2018-12-27T12:08:01.349Z,64.70
2018-12-27T12:09:01.314Z,63.97
2018-12-27T12:10:01.305Z,63.97
2018-12-27T12:11:01.357Z,62.63
2018-12-27T12:12:01.305Z,62.25
2018-12-27T12:13:01.340Z,63.35
2018-12-27T12:14:01.265Z,62.87
2018-12-27T12:15:01.249Z,61.50
2018-12-27T12:16:01.308Z,62.25
2018-12-27T12:17:01.247Z,61.80
2018-12-27T12:18:01.214Z,62.29
2018-12-27T12:19:01.204Z,62.12
2018-12-27T12:20:01.190Z,62.12
2018-12-27T12:21:01.192Z,63.12
2018-12-27T12:22:01.192Z,61.91
2018-12-27T12:23:01.159Z,61.40
2018-12-27T12:24:01.146Z,62.01
2018-12-27T12:25:01.135Z,62.53
2018-12-27T12:26:01.186Z,61.52
2018-12-27T12:27:01.148Z,63.28
2018-12-27T12:28:01.102Z,63.49
2018-12-27T12:29:01.098Z,64.49
2018-12-27T12:30:01.077Z,64.49
2018-12-27T12:31:01.069Z,64.80
2018-12-27T12:32:01.092Z,61.94
2018-12-27T12:33:01.044Z,62.97
2018-12-27T12:34:01.032Z,63.79
2018-12-27T12:35:01.022Z,62.35
2018-12-27T12:36:01.012Z,62.46
2018-12-27T12:37:01.037Z,61.94
2018-12-27T12:38:00.990Z,62.38
2018-12-27T12:39:00.977Z,63.18
2018-12-27T12:40:00.968Z,64.11
2018-12-27T12:41:00.955Z,63.69
2018-12-27T12:42:00.971Z,64.07
2018-12-27T12:43:00.936Z,64.07
2018-12-27T12:44:00.945Z,64.21
2018-12-27T12:45:00.909Z,62.04
2018-12-27T12:46:00.899Z,62.32
2018-12-27T12:47:00.888Z,61.42
2018-12-27T12:48:01.310Z,61.32
2018-12-27T12:49:00.863Z,61.55
2018-12-27T12:50:00.867Z,62.04
2018-12-27T12:51:00.862Z,61.83
2018-12-27T12:52:00.832Z,63.90